Terminal Aerodrome Forecast
Issued by NWS

Current Version | Previous Version | Text Only | Print | Product List | Glossary Off
Versions: 1 2 3 4 5 6 7 8 9 10 11 12 13 14 15 16 17 18 19 20 21

000
FTUS41 KPBZ 252300
TAFMGW
TAF
KMGW 252322Z 2600/2624 24006KT P6SM SCT070
     FM260800 24006KT P6SM BKN025
     FM261200 VRB04KT 3SM -SHRA BR OVC010
     FM261900 32008KT 2SM -SHRA OVC008
     FM262300 33008KT P6SM BKN015=

USA.gov is the U.S. government's official web portal to all federal, state and local government web resources and services.